Terminal Aerodrome Forecast
Issued by NWS

Home | Current Version | Previous Version | Text Only | Print | Product List | Glossary On
Versions: 1 2 3 4 5 6 7 8 9 10 11 12 13 14 15 16 17 18 19 20 21 22 23
000
FTUS41 KPBZ 251935 AAA
TAFLBE
TAF AMD
KLBE 251935Z 2520/2618 26010G18KT P6SM VCTS BKN035CB
      TEMPO 2520/2521 32012G25KT 2SM -TSRA OVC025CB
     FM260300 25004KT P6SM BKN150
     FM260800 26004KT 4SM BR SCT008
     FM261200 00000KT P6SM SCT040=

USA.gov is the U.S. government's official web portal to all federal, state and local government web resources and services.